Warrens, Wisconsin
Current Conditions -  °F | °C
As of 6:15 PM on Saturday 25 Oct 2014 (Local Time) from KCMY Reporting Station
Clear Clear  
Wind Chill: 58°   Ceiling: Unl
Heat Index: 58°   Visibility: 10mi
Dew Point: 24°   Wind: 8mph
Humidity: 27%   Direction: 280°W
Pressure: 29.99"   Gusts: NA
Location:  44.13°N, 90.5°W
Report Text: KCMY 252315Z AUTO 28007KT 10SM CLR 14/M04 A2999 RMK AO2 T01441045
Loading
Personal Weather Stations






























Interactive Weather Map
Tropical Storm Tracking
New forecast layout! Learn more

10-Day Weather Forecast

Advertisements
Track Severe Weather on mobile